sensor_id;sensor_type;location;lat;lon;timestamp;P1;durP1;ratioP1;P2;durP2;ratioP2
80891;SDS011;70343;51.530;5.050;2024-02-23T07:45:23;5.25;;;1.10;;
80891;SDS011;70343;51.530;5.050;2024-02-23T07:47:49;3.60;;;0.88;;
80891;SDS011;70343;51.530;5.050;2024-02-23T07:50:14;6.15;;;1.20;;
80891;SDS011;70343;51.530;5.050;2024-02-23T07:52:41;3.53;;;0.80;;
80891;SDS011;70343;51.530;5.050;2024-02-23T07:55:06;2.53;;;0.82;;
80891;SDS011;70343;51.530;5.050;2024-02-23T07:57:33;6.93;;;0.90;;
80891;SDS011;70343;51.530;5.050;2024-02-23T07:59:59;4.10;;;1.13;;
80891;SDS011;70343;51.530;5.050;2024-02-23T08:02:25;1.65;;;0.63;;
80891;SDS011;70343;51.530;5.050;2024-02-23T08:04:50;4.22;;;0.73;;
80891;SDS011;70343;51.530;5.050;2024-02-23T08:07:17;5.00;;;0.70;;
80891;SDS011;70343;51.530;5.050;2024-02-23T08:09:42;3.90;;;0.93;;
80891;SDS011;70343;51.530;5.050;2024-02-23T08:12:08;13.13;;;0.73;;
80891;SDS011;70343;51.530;5.050;2024-02-23T08:14:34;1.05;;;0.60;;
80891;SDS011;70343;51.530;5.050;2024-02-23T08:17:00;4.82;;;0.60;;
80891;SDS011;70343;51.530;5.050;2024-02-23T08:19:25;5.68;;;0.80;;
80891;SDS011;70343;51.530;5.050;2024-02-23T08:21:50;5.55;;;1.00;;
80891;SDS011;70343;51.530;5.050;2024-02-23T08:24:16;1.70;;;0.73;;
80891;SDS011;70343;51.530;5.050;2024-02-23T08:26:42;3.90;;;0.85;;
80891;SDS011;70343;51.530;5.050;2024-02-23T08:29:08;7.75;;;0.93;;
80891;SDS011;70343;51.530;5.050;2024-02-23T08:31:34;4.15;;;0.90;;
80891;SDS011;70343;51.530;5.050;2024-02-23T08:33:59;5.97;;;1.83;;
80891;SDS011;70343;51.530;5.050;2024-02-23T08:36:25;7.18;;;1.60;;
80891;SDS011;70343;51.530;5.050;2024-02-23T08:38:50;4.80;;;0.68;;
80891;SDS011;70343;51.530;5.050;2024-02-23T08:41:15;2.42;;;0.98;;
80891;SDS011;70343;51.530;5.050;2024-02-23T08:43:41;2.80;;;0.52;;
80891;SDS011;70343;51.530;5.050;2024-02-23T08:46:07;5.50;;;0.60;;
80891;SDS011;70343;51.530;5.050;2024-02-23T08:48:32;4.38;;;1.05;;
80891;SDS011;70343;51.530;5.050;2024-02-23T08:50:58;4.43;;;0.82;;
80891;SDS011;70343;51.530;5.050;2024-02-23T08:53:23;6.95;;;1.15;;
80891;SDS011;70343;51.530;5.050;2024-02-23T08:55:49;2.65;;;0.60;;
80891;SDS011;70343;51.530;5.050;2024-02-23T08:58:14;6.03;;;0.73;;
80891;SDS011;70343;51.530;5.050;2024-02-23T09:00:41;4.38;;;1.42;;
80891;SDS011;70343;51.530;5.050;2024-02-23T09:03:06;1.38;;;0.60;;
80891;SDS011;70343;51.530;5.050;2024-02-23T09:05:31;2.45;;;1.02;;
80891;SDS011;70343;51.530;5.050;2024-02-23T09:07:57;5.05;;;0.80;;
80891;SDS011;70343;51.530;5.050;2024-02-23T09:10:22;4.75;;;1.27;;
80891;SDS011;70343;51.530;5.050;2024-02-23T09:12:48;3.50;;;1.05;;
80891;SDS011;70343;51.530;5.050;2024-02-23T09:15:13;5.63;;;0.82;;
80891;SDS011;70343;51.530;5.050;2024-02-23T09:17:42;6.10;;;0.90;;
80891;SDS011;70343;51.530;5.050;2024-02-23T09:20:08;2.90;;;0.73;;
80891;SDS011;70343;51.530;5.050;2024-02-23T09:22:33;1.88;;;0.60;;
80891;SDS011;70343;51.530;5.050;2024-02-23T09:24:59;5.25;;;1.52;;
80891;SDS011;70343;51.530;5.050;2024-02-23T09:27:24;1.30;;;0.68;;
80891;SDS011;70343;51.530;5.050;2024-02-23T09:29:50;2.45;;;0.95;;
80891;SDS011;70343;51.530;5.050;2024-02-23T09:32:16;5.82;;;0.80;;
80891;SDS011;70343;51.530;5.050;2024-02-23T09:34:41;6.45;;;1.10;;
80891;SDS011;70343;51.530;5.050;2024-02-23T09:37:07;5.68;;;1.55;;
80891;SDS011;70343;51.530;5.050;2024-02-23T09:39:33;4.05;;;1.00;;
80891;SDS011;70343;51.530;5.050;2024-02-23T09:41:58;3.17;;;0.90;;
80891;SDS011;70343;51.530;5.050;2024-02-23T09:44:24;4.93;;;0.85;;
80891;SDS011;70343;51.530;5.050;2024-02-23T09:46:54;2.50;;;0.73;;
80891;SDS011;70343;51.530;5.050;2024-02-23T09:49:21;3.22;;;0.90;;
80891;SDS011;70343;51.530;5.050;2024-02-23T09:51:46;2.00;;;0.47;;
80891;SDS011;70343;51.530;5.050;2024-02-23T09:54:13;2.75;;;0.73;;
80891;SDS011;70343;51.530;5.050;2024-02-23T09:56:39;4.03;;;1.27;;
80891;SDS011;70343;51.530;5.050;2024-02-23T09:59:04;1.63;;;0.75;;
80891;SDS011;70343;51.530;5.050;2024-02-23T10:01:30;1.45;;;0.85;;
80891;SDS011;70343;51.530;5.050;2024-02-23T10:03:58;3.17;;;0.63;;
80891;SDS011;70343;51.530;5.050;2024-02-23T10:06:25;1.30;;;0.50;;
80891;SDS011;70343;51.530;5.050;2024-02-23T10:08:51;3.50;;;0.63;;
80891;SDS011;70343;51.530;5.050;2024-02-23T10:11:22;2.47;;;1.08;;
80891;SDS011;70343;51.530;5.050;2024-02-23T10:13:49;2.63;;;0.80;;
80891;SDS011;70343;51.530;5.050;2024-02-23T10:16:15;4.28;;;1.10;;
80891;SDS011;70343;51.530;5.050;2024-02-23T10:18:41;1.70;;;0.68;;
80891;SDS011;70343;51.530;5.050;2024-02-23T10:21:07;4.22;;;0.85;;
80891;SDS011;70343;51.530;5.050;2024-02-23T10:23:32;3.75;;;0.75;;
80891;SDS011;70343;51.530;5.050;2024-02-23T10:25:58;2.15;;;0.73;;
80891;SDS011;70343;51.530;5.050;2024-02-23T10:28:24;3.60;;;0.60;;
80891;SDS011;70343;51.530;5.050;2024-02-23T10:30:49;2.58;;;0.85;;
80891;SDS011;70343;51.530;5.050;2024-02-23T10:33:15;2.97;;;1.05;;
80891;SDS011;70343;51.530;5.050;2024-02-23T10:35:43;5.32;;;0.93;;
80891;SDS011;70343;51.530;5.050;2024-02-23T10:38:12;2.85;;;0.85;;
80891;SDS011;70343;51.530;5.050;2024-02-23T10:40:42;3.50;;;0.75;;
80891;SDS011;70343;51.530;5.050;2024-02-23T10:43:12;2.50;;;1.42;;
80891;SDS011;70343;51.530;5.050;2024-02-23T10:45:41;3.65;;;0.77;;
80891;SDS011;70343;51.530;5.050;2024-02-23T10:48:08;3.67;;;0.68;;
80891;SDS011;70343;51.530;5.050;2024-02-23T10:50:35;7.53;;;1.27;;
80891;SDS011;70343;51.530;5.050;2024-02-23T10:53:03;4.43;;;0.82;;
80891;SDS011;70343;51.530;5.050;2024-02-23T10:55:31;3.15;;;0.90;;
80891;SDS011;70343;51.530;5.050;2024-02-23T10:57:57;3.05;;;0.90;;
80891;SDS011;70343;51.530;5.050;2024-02-23T11:00:23;2.83;;;0.80;;
80891;SDS011;70343;51.530;5.050;2024-02-23T11:02:51;4.13;;;0.95;;
80891;SDS011;70343;51.530;5.050;2024-02-23T11:05:18;2.28;;;0.80;;
80891;SDS011;70343;51.530;5.050;2024-02-23T11:07:47;3.13;;;0.70;;
80891;SDS011;70343;51.530;5.050;2024-02-23T11:10:17;3.38;;;0.43;;
80891;SDS011;70343;51.530;5.050;2024-02-23T11:12:43;2.72;;;0.95;;
80891;SDS011;70343;51.530;5.050;2024-02-23T11:15:08;3.88;;;1.00;;
80891;SDS011;70343;51.530;5.050;2024-02-23T11:17:36;2.20;;;0.60;;
80891;SDS011;70343;51.530;5.050;2024-02-23T11:20:03;7.43;;;1.13;;
80891;SDS011;70343;51.530;5.050;2024-02-23T11:22:30;3.28;;;0.98;;
80891;SDS011;70343;51.530;5.050;2024-02-23T11:25:00;0.80;;;0.50;;
80891;SDS011;70343;51.530;5.050;2024-02-23T11:27:32;2.35;;;0.90;;
80891;SDS011;70343;51.530;5.050;2024-02-23T11:30:05;1.95;;;0.60;;
80891;SDS011;70343;51.530;5.050;2024-02-23T11:32:39;3.38;;;0.63;;
80891;SDS011;70343;51.530;5.050;2024-02-23T11:35:07;2.33;;;0.70;;
80891;SDS011;70343;51.530;5.050;2024-02-23T11:37:33;4.18;;;0.70;;
80891;SDS011;70343;51.530;5.050;2024-02-23T11:40:08;1.23;;;0.40;;
80891;SDS011;70343;51.530;5.050;2024-02-23T11:42:35;1.38;;;0.70;;
80891;SDS011;70343;51.530;5.050;2024-02-23T11:45:03;1.40;;;0.80;;
80891;SDS011;70343;51.530;5.050;2024-02-23T11:47:28;2.45;;;0.50;;
80891;SDS011;70343;51.530;5.050;2024-02-23T11:49:54;7.13;;;0.68;;
80891;SDS011;70343;51.530;5.050;2024-02-23T11:52:20;2.05;;;0.63;;
80891;SDS011;70343;51.530;5.050;2024-02-23T11:54:46;3.95;;;0.73;;
80891;SDS011;70343;51.530;5.050;2024-02-23T11:57:11;3.33;;;0.73;;
80891;SDS011;70343;51.530;5.050;2024-02-23T11:59:39;2.20;;;0.60;;
80891;SDS011;70343;51.530;5.050;2024-02-23T12:02:06;1.75;;;0.50;;
80891;SDS011;70343;51.530;5.050;2024-02-23T12:04:32;1.55;;;0.40;;
80891;SDS011;70343;51.530;5.050;2024-02-23T12:06:58;1.83;;;0.45;;
80891;SDS011;70343;51.530;5.050;2024-02-23T12:09:24;3.17;;;1.13;;
80891;SDS011;70343;51.530;5.050;2024-02-23T12:11:50;2.42;;;0.70;;
80891;SDS011;70343;51.530;5.050;2024-02-23T12:14:16;2.28;;;1.10;;
80891;SDS011;70343;51.530;5.050;2024-02-23T12:16:42;2.35;;;0.70;;
80891;SDS011;70343;51.530;5.050;2024-02-23T12:19:08;2.88;;;0.77;;
80891;SDS011;70343;51.530;5.050;2024-02-23T12:21:34;2.58;;;0.50;;
80891;SDS011;70343;51.530;5.050;2024-02-23T12:24:03;2.55;;;0.80;;
80891;SDS011;70343;51.530;5.050;2024-02-23T12:26:30;2.67;;;0.60;;
80891;SDS011;70343;51.530;5.050;2024-02-23T12:28:59;3.70;;;0.90;;
80891;SDS011;70343;51.530;5.050;2024-02-23T12:31:26;2.28;;;0.68;;
80891;SDS011;70343;51.530;5.050;2024-02-23T12:33:52;4.68;;;0.85;;
80891;SDS011;70343;51.530;5.050;2024-02-23T12:36:17;4.50;;;1.00;;
80891;SDS011;70343;51.530;5.050;2024-02-23T12:38:43;2.33;;;0.57;;
80891;SDS011;70343;51.530;5.050;2024-02-23T12:41:09;2.05;;;0.65;;
80891;SDS011;70343;51.530;5.050;2024-02-23T12:43:34;2.20;;;0.60;;
80891;SDS011;70343;51.530;5.050;2024-02-23T12:46:00;2.65;;;0.82;;
80891;SDS011;70343;51.530;5.050;2024-02-23T12:48:28;2.28;;;0.65;;
80891;SDS011;70343;51.530;5.050;2024-02-23T12:50:53;3.03;;;0.50;;
80891;SDS011;70343;51.530;5.050;2024-02-23T12:53:35;1.75;;;0.63;;
80891;SDS011;70343;51.530;5.050;2024-02-23T12:56:07;4.28;;;0.60;;
80891;SDS011;70343;51.530;5.050;2024-02-23T12:58:34;3.78;;;0.80;;
80891;SDS011;70343;51.530;5.050;2024-02-23T13:01:01;5.03;;;0.80;;
80891;SDS011;70343;51.530;5.050;2024-02-23T13:03:27;2.22;;;0.50;;
80891;SDS011;70343;51.530;5.050;2024-02-23T13:05:56;3.83;;;0.80;;
80891;SDS011;70343;51.530;5.050;2024-02-23T13:08:23;4.22;;;1.00;;
80891;SDS011;70343;51.530;5.050;2024-02-23T13:10:49;4.28;;;1.10;;
80891;SDS011;70343;51.530;5.050;2024-02-23T13:13:15;1.58;;;0.50;;
80891;SDS011;70343;51.530;5.050;2024-02-23T13:15:42;2.88;;;0.50;;
80891;SDS011;70343;51.530;5.050;2024-02-23T13:18:08;3.20;;;0.57;;
80891;SDS011;70343;51.530;5.050;2024-02-23T13:20:34;2.60;;;0.50;;
80891;SDS011;70343;51.530;5.050;2024-02-23T13:23:00;4.03;;;0.80;;
80891;SDS011;70343;51.530;5.050;2024-02-23T13:25:26;1.17;;;0.20;;
80891;SDS011;70343;51.530;5.050;2024-02-23T13:27:52;3.53;;;0.50;;
80891;SDS011;70343;51.530;5.050;2024-02-23T13:30:18;1.75;;;0.35;;
80891;SDS011;70343;51.530;5.050;2024-02-23T13:32:44;1.10;;;0.30;;
80891;SDS011;70343;51.530;5.050;2024-02-23T13:35:09;2.00;;;0.80;;
80891;SDS011;70343;51.530;5.050;2024-02-23T13:37:35;2.05;;;0.60;;
80891;SDS011;70343;51.530;5.050;2024-02-23T13:40:01;1.38;;;0.50;;
80891;SDS011;70343;51.530;5.050;2024-02-23T13:42:26;1.25;;;0.50;;
80891;SDS011;70343;51.530;5.050;2024-02-23T13:44:52;0.80;;;0.60;;
80891;SDS011;70343;51.530;5.050;2024-02-23T13:47:19;2.47;;;0.60;;
80891;SDS011;70343;51.530;5.050;2024-02-23T13:49:45;1.35;;;0.55;;
80891;SDS011;70343;51.530;5.050;2024-02-23T13:52:10;0.60;;;0.50;;
80891;SDS011;70343;51.530;5.050;2024-02-23T13:54:36;2.05;;;0.40;;
80891;SDS011;70343;51.530;5.050;2024-02-23T13:57:01;3.13;;;0.73;;
80891;SDS011;70343;51.530;5.050;2024-02-23T13:59:27;1.35;;;0.63;;
80891;SDS011;70343;51.530;5.050;2024-02-23T14:01:52;3.15;;;0.70;;
80891;SDS011;70343;51.530;5.050;2024-02-23T14:04:18;4.00;;;0.80;;
80891;SDS011;70343;51.530;5.050;2024-02-23T14:06:43;3.92;;;1.00;;
80891;SDS011;70343;51.530;5.050;2024-02-23T14:09:09;2.63;;;1.30;;
80891;SDS011;70343;51.530;5.050;2024-02-23T14:11:35;2.63;;;0.77;;
80891;SDS011;70343;51.530;5.050;2024-02-23T14:14:00;3.70;;;0.98;;
80891;SDS011;70343;51.530;5.050;2024-02-23T14:16:28;4.18;;;0.77;;
80891;SDS011;70343;51.530;5.050;2024-02-23T14:18:53;2.20;;;0.50;;
80891;SDS011;70343;51.530;5.050;2024-02-23T14:21:19;5.30;;;0.75;;
80891;SDS011;70343;51.530;5.050;2024-02-23T14:23:46;2.97;;;0.80;;
80891;SDS011;70343;51.530;5.050;2024-02-23T14:26:11;3.13;;;0.93;;
80891;SDS011;70343;51.530;5.050;2024-02-23T14:28:37;2.25;;;0.75;;
80891;SDS011;70343;51.530;5.050;2024-02-23T14:31:03;1.95;;;1.13;;
80891;SDS011;70343;51.530;5.050;2024-02-23T14:33:29;2.00;;;0.73;;
80891;SDS011;70343;51.530;5.050;2024-02-23T14:35:54;4.30;;;0.90;;
80891;SDS011;70343;51.530;5.050;2024-02-23T14:38:20;2.70;;;0.63;;
80891;SDS011;70343;51.530;5.050;2024-02-23T14:40:46;2.88;;;0.60;;
80891;SDS011;70343;51.530;5.050;2024-02-23T14:43:11;6.38;;;0.90;;
80891;SDS011;70343;51.530;5.050;2024-02-23T14:45:37;3.28;;;0.60;;
80891;SDS011;70343;51.530;5.050;2024-02-23T14:48:03;2.25;;;0.60;;
80891;SDS011;70343;51.530;5.050;2024-02-23T14:50:29;2.47;;;0.75;;
80891;SDS011;70343;51.530;5.050;2024-02-23T14:52:54;2.60;;;0.50;;
80891;SDS011;70343;51.530;5.050;2024-02-23T14:55:20;2.17;;;0.47;;
80891;SDS011;70343;51.530;5.050;2024-02-23T14:57:46;1.90;;;0.82;;
80891;SDS011;70343;51.530;5.050;2024-02-23T15:00:12;2.95;;;1.33;;
80891;SDS011;70343;51.530;5.050;2024-02-23T15:02:38;3.00;;;0.70;;
80891;SDS011;70343;51.530;5.050;2024-02-23T15:05:06;2.00;;;0.85;;
80891;SDS011;70343;51.530;5.050;2024-02-23T15:07:32;3.20;;;0.88;;
80891;SDS011;70343;51.530;5.050;2024-02-23T15:09:58;4.30;;;0.93;;
80891;SDS011;70343;51.530;5.050;2024-02-23T15:12:26;3.40;;;1.00;;
80891;SDS011;70343;51.530;5.050;2024-02-23T15:14:53;4.00;;;1.20;;
80891;SDS011;70343;51.530;5.050;2024-02-23T15:17:19;4.75;;;1.48;;
80891;SDS011;70343;51.530;5.050;2024-02-23T15:19:45;3.70;;;1.25;;
80891;SDS011;70343;51.530;5.050;2024-02-23T15:22:10;4.15;;;1.50;;
80891;SDS011;70343;51.530;5.050;2024-02-23T15:24:40;2.95;;;1.05;;
80891;SDS011;70343;51.530;5.050;2024-02-23T15:27:10;7.82;;;1.50;;
80891;SDS011;70343;51.530;5.050;2024-02-23T15:29:35;2.85;;;0.70;;
80891;SDS011;70343;51.530;5.050;2024-02-23T15:32:01;4.65;;;1.30;;
80891;SDS011;70343;51.530;5.050;2024-02-23T15:34:27;6.00;;;1.20;;
80891;SDS011;70343;51.530;5.050;2024-02-23T15:36:52;2.63;;;0.80;;
80891;SDS011;70343;51.530;5.050;2024-02-23T15:39:19;3.13;;;1.02;;
80891;SDS011;70343;51.530;5.050;2024-02-23T15:41:44;4.28;;;1.15;;
80891;SDS011;70343;51.530;5.050;2024-02-23T15:44:10;2.90;;;0.70;;
80891;SDS011;70343;51.530;5.050;2024-02-23T15:46:36;4.53;;;0.90;;
80891;SDS011;70343;51.530;5.050;2024-02-23T15:49:01;2.90;;;1.17;;
80891;SDS011;70343;51.530;5.050;2024-02-23T15:51:27;4.30;;;1.00;;
80891;SDS011;70343;51.530;5.050;2024-02-23T15:53:52;5.82;;;1.13;;
80891;SDS011;70343;51.530;5.050;2024-02-23T15:56:19;1.80;;;0.80;;
80891;SDS011;70343;51.530;5.050;2024-02-23T15:58:45;3.75;;;1.88;;
80891;SDS011;70343;51.530;5.050;2024-02-23T16:01:10;3.00;;;0.80;;
80891;SDS011;70343;51.530;5.050;2024-02-23T16:03:36;1.85;;;0.90;;
80891;SDS011;70343;51.530;5.050;2024-02-23T16:06:02;4.63;;;1.20;;
80891;SDS011;70343;51.530;5.050;2024-02-23T16:08:43;5.85;;;2.45;;
80891;SDS011;70343;51.530;5.050;2024-02-23T16:11:10;2.92;;;1.15;;
80891;SDS011;70343;51.530;5.050;2024-02-23T16:13:37;4.50;;;1.38;;
80891;SDS011;70343;51.530;5.050;2024-02-23T16:16:04;3.13;;;0.90;;
80891;SDS011;70343;51.530;5.050;2024-02-23T16:18:34;4.28;;;1.85;;
80891;SDS011;70343;51.530;5.050;2024-02-23T16:21:00;4.80;;;1.40;;
80891;SDS011;70343;51.530;5.050;2024-02-23T16:23:26;4.15;;;2.50;;
80891;SDS011;70343;51.530;5.050;2024-02-23T16:25:52;4.88;;;1.60;;
80891;SDS011;70343;51.530;5.050;2024-02-23T16:28:18;4.63;;;1.15;;
80891;SDS011;70343;51.530;5.050;2024-02-23T16:30:43;8.13;;;2.13;;
80891;SDS011;70343;51.530;5.050;2024-02-23T16:33:09;10.30;;;4.10;;
80891;SDS011;70343;51.530;5.050;2024-02-23T16:35:35;17.20;;;5.78;;
80891;SDS011;70343;51.530;5.050;2024-02-23T16:38:01;5.25;;;1.13;;
80891;SDS011;70343;51.530;5.050;2024-02-23T16:40:26;11.20;;;4.65;;
80891;SDS011;70343;51.530;5.050;2024-02-23T16:42:55;17.83;;;6.15;;
80891;SDS011;70343;51.530;5.050;2024-02-23T16:45:21;2.53;;;0.98;;
80891;SDS011;70343;51.530;5.050;2024-02-23T16:47:47;1.33;;;0.70;;
80891;SDS011;70343;51.530;5.050;2024-02-23T16:50:12;6.60;;;1.25;;
80891;SDS011;70343;51.530;5.050;2024-02-23T16:52:38;4.68;;;2.10;;
80891;SDS011;70343;51.530;5.050;2024-02-23T16:55:05;8.60;;;1.80;;
80891;SDS011;70343;51.530;5.050;2024-02-23T16:57:31;5.10;;;1.10;;
80891;SDS011;70343;51.530;5.050;2024-02-23T16:59:57;2.40;;;1.15;;
80891;SDS011;70343;51.530;5.050;2024-02-23T17:02:22;4.95;;;1.15;;
80891;SDS011;70343;51.530;5.050;2024-02-23T17:04:47;3.33;;;1.00;;
80891;SDS011;70343;51.530;5.050;2024-02-23T17:07:13;4.05;;;1.02;;
80891;SDS011;70343;51.530;5.050;2024-02-23T17:09:38;4.60;;;1.13;;
80891;SDS011;70343;51.530;5.050;2024-02-23T17:12:04;0.73;;;0.55;;
80891;SDS011;70343;51.530;5.050;2024-02-23T17:14:30;2.08;;;0.65;;
80891;SDS011;70343;51.530;5.050;2024-02-23T17:16:56;0.43;;;0.40;;
80891;SDS011;70343;51.530;5.050;2024-02-23T17:19:21;1.40;;;0.70;;
80891;SDS011;70343;51.530;5.050;2024-02-23T17:21:48;2.17;;;0.60;;
80891;SDS011;70343;51.530;5.050;2024-02-23T17:24:13;0.65;;;0.45;;
80891;SDS011;70343;51.530;5.050;2024-02-23T17:26:39;1.38;;;0.50;;
80891;SDS011;70343;51.530;5.050;2024-02-23T17:29:04;0.65;;;0.40;;
80891;SDS011;70343;51.530;5.050;2024-02-23T17:31:32;1.48;;;0.65;;
80891;SDS011;70343;51.530;5.050;2024-02-23T17:33:58;0.25;;;0.20;;
80891;SDS011;70343;51.530;5.050;2024-02-23T17:36:23;0.93;;;0.40;;
80891;SDS011;70343;51.530;5.050;2024-02-23T17:38:49;1.55;;;0.30;;
80891;SDS011;70343;51.530;5.050;2024-02-23T17:41:14;3.45;;;1.17;;
80891;SDS011;70343;51.530;5.050;2024-02-23T17:43:40;0.35;;;0.20;;
80891;SDS011;70343;51.530;5.050;2024-02-23T17:46:05;0.60;;;0.45;;
80891;SDS011;70343;51.530;5.050;2024-02-23T17:48:32;1.05;;;0.70;;
80891;SDS011;70343;51.530;5.050;2024-02-23T17:50:58;1.02;;;0.60;;
80891;SDS011;70343;51.530;5.050;2024-02-23T17:53:24;3.15;;;0.93;;
80891;SDS011;70343;51.530;5.050;2024-02-23T17:55:49;2.65;;;1.60;;
80891;SDS011;70343;51.530;5.050;2024-02-23T17:58:18;1.30;;;1.20;;
80891;SDS011;70343;51.530;5.050;2024-02-23T18:00:44;2.22;;;1.60;;
80891;SDS011;70343;51.530;5.050;2024-02-23T18:03:10;3.50;;;2.15;;
80891;SDS011;70343;51.530;5.050;2024-02-23T18:05:35;3.83;;;2.03;;
80891;SDS011;70343;51.530;5.050;2024-02-23T18:08:01;3.50;;;1.70;;
80891;SDS011;70343;51.530;5.050;2024-02-23T18:10:26;3.53;;;2.60;;
80891;SDS011;70343;51.530;5.050;2024-02-23T18:12:52;4.88;;;2.10;;
80891;SDS011;70343;51.530;5.050;2024-02-23T18:15:17;2.58;;;1.90;;
80891;SDS011;70343;51.530;5.050;2024-02-23T18:17:43;3.13;;;2.13;;
80891;SDS011;70343;51.530;5.050;2024-02-23T18:20:09;4.30;;;2.15;;
80891;SDS011;70343;51.530;5.050;2024-02-23T18:22:36;4.50;;;2.67;;
80891;SDS011;70343;51.530;5.050;2024-02-23T18:25:01;3.13;;;2.40;;
80891;SDS011;70343;51.530;5.050;2024-02-23T18:27:27;2.85;;;2.60;;
80891;SDS011;70343;51.530;5.050;2024-02-23T18:29:52;3.00;;;2.08;;
80891;SDS011;70343;51.530;5.050;2024-02-23T18:32:18;3.30;;;2.00;;
80891;SDS011;70343;51.530;5.050;2024-02-23T18:34:44;4.15;;;2.40;;
80891;SDS011;70343;51.530;5.050;2024-02-23T18:37:09;3.83;;;2.33;;
80891;SDS011;70343;51.530;5.050;2024-02-23T18:39:35;2.75;;;2.30;;
80891;SDS011;70343;51.530;5.050;2024-02-23T18:42:01;3.28;;;2.47;;
80891;SDS011;70343;51.530;5.050;2024-02-23T18:44:27;5.15;;;2.47;;
80891;SDS011;70343;51.530;5.050;2024-02-23T18:46:52;2.78;;;2.15;;
80891;SDS011;70343;51.530;5.050;2024-02-23T18:49:18;6.95;;;2.80;;
80891;SDS011;70343;51.530;5.050;2024-02-23T18:51:43;3.17;;;2.70;;
80891;SDS011;70343;51.530;5.050;2024-02-23T18:54:10;4.97;;;2.50;;
80891;SDS011;70343;51.530;5.050;2024-02-23T18:56:35;3.67;;;2.35;;
80891;SDS011;70343;51.530;5.050;2024-02-23T18:59:01;2.30;;;1.77;;
80891;SDS011;70343;51.530;5.050;2024-02-23T19:01:26;6.18;;;2.08;;
80891;SDS011;70343;51.530;5.050;2024-02-23T19:03:52;2.03;;;1.80;;
80891;SDS011;70343;51.530;5.050;2024-02-23T19:06:17;3.10;;;1.75;;
80891;SDS011;70343;51.530;5.050;2024-02-23T19:08:43;3.00;;;1.95;;
80891;SDS011;70343;51.530;5.050;2024-02-23T19:11:08;3.70;;;1.98;;
80891;SDS011;70343;51.530;5.050;2024-02-23T19:13:34;3.72;;;2.60;;
80891;SDS011;70343;51.530;5.050;2024-02-23T19:15:59;2.63;;;1.90;;
80891;SDS011;70343;51.530;5.050;2024-02-23T19:18:25;5.72;;;1.95;;
80891;SDS011;70343;51.530;5.050;2024-02-23T19:20:50;2.65;;;1.85;;
80891;SDS011;70343;51.530;5.050;2024-02-23T19:23:16;2.83;;;1.52;;
80891;SDS011;70343;51.530;5.050;2024-02-23T19:25:42;1.90;;;1.25;;
80891;SDS011;70343;51.530;5.050;2024-02-23T19:28:08;3.03;;;1.50;;
80891;SDS011;70343;51.530;5.050;2024-02-23T19:30:34;3.25;;;1.50;;
80891;SDS011;70343;51.530;5.050;2024-02-23T19:32:59;2.00;;;1.48;;
80891;SDS011;70343;51.530;5.050;2024-02-23T19:35:25;4.65;;;1.65;;
80891;SDS011;70343;51.530;5.050;2024-02-23T19:37:50;4.68;;;2.20;;
80891;SDS011;70343;51.530;5.050;2024-02-23T19:40:16;2.53;;;1.15;;
80891;SDS011;70343;51.530;5.050;2024-02-23T19:42:47;2.55;;;1.38;;
80891;SDS011;70343;51.530;5.050;2024-02-23T19:45:14;1.60;;;1.25;;
80891;SDS011;70343;51.530;5.050;2024-02-23T19:47:39;2.78;;;1.60;;
80891;SDS011;70343;51.530;5.050;2024-02-23T19:50:05;3.28;;;1.60;;
80891;SDS011;70343;51.530;5.050;2024-02-23T19:52:31;1.10;;;0.82;;
80891;SDS011;70343;51.530;5.050;2024-02-23T19:54:57;2.22;;;0.80;;
80891;SDS011;70343;51.530;5.050;2024-02-23T19:57:22;1.73;;;0.90;;
80891;SDS011;70343;51.530;5.050;2024-02-23T19:59:48;5.07;;;1.58;;
80891;SDS011;70343;51.530;5.050;2024-02-23T20:02:13;1.77;;;0.85;;
80891;SDS011;70343;51.530;5.050;2024-02-23T20:04:40;2.67;;;1.27;;
80891;SDS011;70343;51.530;5.050;2024-02-23T20:07:06;3.70;;;1.02;;
80891;SDS011;70343;51.530;5.050;2024-02-23T20:09:38;1.40;;;0.82;;
80891;SDS011;70343;51.530;5.050;2024-02-23T20:12:04;2.45;;;1.10;;
80891;SDS011;70343;51.530;5.050;2024-02-23T20:14:31;3.85;;;1.17;;
80891;SDS011;70343;51.530;5.050;2024-02-23T20:16:57;2.33;;;1.17;;
80891;SDS011;70343;51.530;5.050;2024-02-23T20:19:22;1.88;;;0.80;;
80891;SDS011;70343;51.530;5.050;2024-02-23T20:21:48;2.03;;;1.10;;
80891;SDS011;70343;51.530;5.050;2024-02-23T20:24:13;3.10;;;2.55;;
80891;SDS011;70343;51.530;5.050;2024-02-23T20:26:39;2.22;;;1.95;;
80891;SDS011;70343;51.530;5.050;2024-02-23T20:29:06;2.95;;;2.30;;
80891;SDS011;70343;51.530;5.050;2024-02-23T20:31:32;3.08;;;2.30;;
80891;SDS011;70343;51.530;5.050;2024-02-23T20:36:27;4.10;;;3.40;;
80891;SDS011;70343;51.530;5.050;2024-02-23T20:38:53;10.05;;;6.63;;
80891;SDS011;70343;51.530;5.050;2024-02-23T20:41:18;5.38;;;4.22;;
80891;SDS011;70343;51.530;5.050;2024-02-23T20:43:44;8.75;;;4.40;;
80891;SDS011;70343;51.530;5.050;2024-02-23T20:46:09;5.13;;;4.57;;
80891;SDS011;70343;51.530;5.050;2024-02-23T20:48:35;6.68;;;5.15;;
80891;SDS011;70343;51.530;5.050;2024-02-23T20:51:00;5.90;;;4.60;;
80891;SDS011;70343;51.530;5.050;2024-02-23T20:53:30;6.57;;;4.38;;
80891;SDS011;70343;51.530;5.050;2024-02-23T20:55:55;7.35;;;5.00;;
80891;SDS011;70343;51.530;5.050;2024-02-23T20:58:21;4.90;;;3.92;;
80891;SDS011;70343;51.530;5.050;2024-02-23T21:00:46;7.72;;;4.97;;
80891;SDS011;70343;51.530;5.050;2024-02-23T21:03:13;9.30;;;5.45;;
80891;SDS011;70343;51.530;5.050;2024-02-23T21:05:38;9.25;;;6.35;;
80891;SDS011;70343;51.530;5.050;2024-02-23T21:08:04;8.68;;;7.32;;
80891;SDS011;70343;51.530;5.050;2024-02-23T21:10:31;7.75;;;6.60;;
80891;SDS011;70343;51.530;5.050;2024-02-23T21:12:57;7.43;;;4.85;;
80891;SDS011;70343;51.530;5.050;2024-02-23T21:15:22;5.28;;;4.65;;
80891;SDS011;70343;51.530;5.050;2024-02-23T21:17:48;8.57;;;6.03;;
80891;SDS011;70343;51.530;5.050;2024-02-23T21:20:13;8.02;;;5.80;;
80891;SDS011;70343;51.530;5.050;2024-02-23T21:22:39;6.10;;;5.50;;
80891;SDS011;70343;51.530;5.050;2024-02-23T21:25:04;8.18;;;5.13;;
80891;SDS011;70343;51.530;5.050;2024-02-23T21:27:30;7.18;;;4.93;;
80891;SDS011;70343;51.530;5.050;2024-02-23T21:29:56;9.85;;;5.75;;
80891;SDS011;70343;51.530;5.050;2024-02-23T21:32:21;7.07;;;5.30;;
80891;SDS011;70343;51.530;5.050;2024-02-23T21:34:47;4.82;;;3.72;;
80891;SDS011;70343;51.530;5.050;2024-02-23T21:37:13;3.97;;;2.92;;
80891;SDS011;70343;51.530;5.050;2024-02-23T21:39:41;2.97;;;2.17;;
80891;SDS011;70343;51.530;5.050;2024-02-23T21:42:06;5.43;;;2.83;;
80891;SDS011;70343;51.530;5.050;2024-02-23T21:44:32;3.25;;;2.15;;
80891;SDS011;70343;51.530;5.050;2024-02-23T21:46:57;1.75;;;1.63;;
80891;SDS011;70343;51.530;5.050;2024-02-23T21:49:23;4.35;;;2.20;;
80891;SDS011;70343;51.530;5.050;2024-02-23T21:51:48;2.83;;;1.50;;
80891;SDS011;70343;51.530;5.050;2024-02-23T21:54:14;3.20;;;2.55;;
80891;SDS011;70343;51.530;5.050;2024-02-23T21:56:39;2.40;;;2.20;;
80891;SDS011;70343;51.530;5.050;2024-02-23T21:59:05;2.95;;;1.65;;
80891;SDS011;70343;51.530;5.050;2024-02-23T22:01:30;2.85;;;1.60;;
80891;SDS011;70343;51.530;5.050;2024-02-23T22:03:58;3.35;;;1.90;;
80891;SDS011;70343;51.530;5.050;2024-02-23T22:06:23;3.10;;;0.98;;
80891;SDS011;70343;51.530;5.050;2024-02-23T22:08:49;1.10;;;1.00;;
80891;SDS011;70343;51.530;5.050;2024-02-23T22:11:14;1.90;;;1.10;;
80891;SDS011;70343;51.530;5.050;2024-02-23T22:13:43;1.10;;;0.70;;
80891;SDS011;70343;51.530;5.050;2024-02-23T22:16:09;2.47;;;0.70;;
80891;SDS011;70343;51.530;5.050;2024-02-23T22:18:35;2.55;;;0.82;;
80891;SDS011;70343;51.530;5.050;2024-02-23T22:21:01;3.03;;;1.15;;
80891;SDS011;70343;51.530;5.050;2024-02-23T22:23:29;0.88;;;0.82;;
80891;SDS011;70343;51.530;5.050;2024-02-23T22:25:55;1.13;;;0.70;;
80891;SDS011;70343;51.530;5.050;2024-02-23T22:28:20;1.30;;;0.70;;